createdAt,value
2019-03-31T00:00:34.677Z,87.00
2019-03-31T00:05:52.291Z,87.50
2019-03-31T00:08:20.558Z,87.80
2019-03-31T00:10:49.089Z,87.80
2019-03-31T00:13:17.345Z,87.70
2019-03-31T00:15:45.789Z,87.60
2019-03-31T00:18:14.558Z,87.40
2019-03-31T00:20:42.877Z,87.30
2019-03-31T00:23:11.224Z,87.70
2019-03-31T00:25:41.187Z,87.60
2019-03-31T00:28:09.602Z,87.70
2019-03-31T00:30:37.950Z,87.80
2019-03-31T00:33:06.269Z,88.00
2019-03-31T00:35:34.529Z,87.90
2019-03-31T00:38:02.875Z,88.50
2019-03-31T00:40:31.123Z,88.10
2019-03-31T00:42:59.363Z,88.10
2019-03-31T00:45:27.674Z,88.30
2019-03-31T00:47:56.294Z,88.50
2019-03-31T00:50:24.598Z,88.80
2019-03-31T00:52:52.937Z,88.70
2019-03-31T00:55:21.189Z,89.20
2019-03-31T00:57:49.722Z,89.30
2019-03-31T01:00:19.608Z,89.30
2019-03-31T01:02:47.857Z,88.90
2019-03-31T01:05:16.376Z,89.40
2019-03-31T01:07:44.690Z,89.30
2019-03-31T01:10:13.226Z,88.80
2019-03-31T01:12:41.681Z,88.10
2019-03-31T01:15:11.653Z,88.40
2019-03-31T01:17:39.961Z,88.70
2019-03-31T01:20:08.218Z,88.50
2019-03-31T01:22:36.529Z,88.70
2019-03-31T01:25:07.496Z,88.90
2019-03-31T01:27:35.744Z,89.20
2019-03-31T01:30:09.075Z,88.60
2019-03-31T01:32:38.885Z,88.50
2019-03-31T01:35:08.691Z,88.40
2019-03-31T01:37:37.282Z,88.40
2019-03-31T01:40:08.214Z,88.70
2019-03-31T01:42:36.735Z,88.80
2019-03-31T01:45:06.905Z,89.00
2019-03-31T01:47:35.156Z,89.10
2019-03-31T01:50:04.495Z,89.60
2019-03-31T01:52:34.307Z,89.60
2019-03-31T01:55:02.551Z,89.50
2019-03-31T01:57:30.800Z,89.30
2019-03-31T01:59:59.048Z,89.20
2019-03-31T02:02:29.319Z,89.30
2019-03-31T02:04:57.887Z,89.60
2019-03-31T02:07:26.389Z,89.20
2019-03-31T02:09:54.958Z,89.20
2019-03-31T02:12:23.221Z,89.20
2019-03-31T02:14:52.266Z,89.50
2019-03-31T02:17:20.580Z,89.70
2019-03-31T02:19:48.842Z,89.90
2019-03-31T02:22:17.540Z,90.70
2019-03-31T02:24:45.866Z,90.60
2019-03-31T02:27:14.120Z,90.70
2019-03-31T02:29:42.365Z,91.10
2019-03-31T02:32:23.458Z,90.60
2019-03-31T02:34:40.894Z,90.70
2019-03-31T02:37:09.154Z,90.20
2019-03-31T02:39:37.656Z,90.20
2019-03-31T02:42:05.917Z,90.20
2019-03-31T02:44:34.153Z,90.10
2019-03-31T02:47:02.412Z,89.80
2019-03-31T02:49:30.648Z,89.70
2019-03-31T02:51:58.902Z,89.70
2019-03-31T02:54:27.148Z,89.90
2019-03-31T02:56:55.408Z,90.10
2019-03-31T02:59:23.641Z,90.10
2019-03-31T03:01:52.165Z,90.10
2019-03-31T03:04:20.414Z,90.00
2019-03-31T03:06:49.734Z,90.70
2019-03-31T03:09:17.969Z,90.60
2019-03-31T03:11:46.233Z,90.80
2019-03-31T03:14:14.468Z,90.80
2019-03-31T03:16:42.713Z,90.80
2019-03-31T03:19:11.206Z,90.60
2019-03-31T03:21:39.457Z,90.70
2019-03-31T03:24:07.740Z,90.80
2019-03-31T03:26:35.993Z,90.50
2019-03-31T03:29:04.235Z,90.60
2019-03-31T03:31:32.509Z,90.70
2019-03-31T03:34:01.086Z,90.80
2019-03-31T03:36:29.388Z,90.80
2019-03-31T03:38:57.640Z,90.80
2019-03-31T03:41:25.880Z,90.90
2019-03-31T03:43:57.050Z,90.90
2019-03-31T03:46:24.113Z,90.70
2019-03-31T03:48:52.402Z,90.80
2019-03-31T03:51:20.686Z,90.70
2019-03-31T03:53:48.935Z,90.90
2019-03-31T03:56:17.176Z,90.90
2019-03-31T03:58:45.433Z,90.80
2019-03-31T04:01:15.188Z,91.00
2019-03-31T04:03:43.450Z,91.70
2019-03-31T04:06:11.697Z,91.80
2019-03-31T04:08:40.201Z,91.50
2019-03-31T04:11:09.683Z,91.30
2019-03-31T04:13:37.951Z,91.20
2019-03-31T04:16:06.202Z,91.30
2019-03-31T04:18:34.448Z,91.30
2019-03-31T04:21:02.693Z,91.00
2019-03-31T04:23:31.202Z,90.90
2019-03-31T04:25:59.440Z,91.00
2019-03-31T04:28:27.700Z,91.10
2019-03-31T04:30:56.192Z,91.10
2019-03-31T04:33:24.447Z,91.00
2019-03-31T04:35:52.681Z,91.20
2019-03-31T04:38:21.199Z,90.90
2019-03-31T04:40:49.518Z,90.80
2019-03-31T04:43:17.833Z,90.70
2019-03-31T04:45:46.076Z,90.80
2019-03-31T04:48:14.583Z,90.60
2019-03-31T04:50:42.824Z,90.50
2019-03-31T04:53:11.080Z,90.50
2019-03-31T04:55:39.587Z,90.60
2019-03-31T04:58:08.089Z,90.70
2019-03-31T05:00:36.584Z,90.80
2019-03-31T05:03:04.848Z,90.80
2019-03-31T05:05:33.087Z,90.90
2019-03-31T05:08:01.340Z,90.90
2019-03-31T05:10:29.585Z,90.80
2019-03-31T05:12:58.084Z,90.80
2019-03-31T05:15:26.571Z,90.80
2019-03-31T05:17:54.812Z,90.60
2019-03-31T05:20:23.068Z,91.00
2019-03-31T05:22:52.863Z,91.20
2019-03-31T05:25:21.598Z,91.40
2019-03-31T05:27:50.092Z,91.60
2019-03-31T05:30:18.344Z,91.90
2019-03-31T05:32:46.591Z,92.00
2019-03-31T05:35:14.851Z,92.20
2019-03-31T05:37:50.811Z,92.20
2019-03-31T05:40:13.076Z,92.50
2019-03-31T05:42:41.556Z,92.50
2019-03-31T05:45:09.833Z,92.40
2019-03-31T05:47:38.140Z,92.40
2019-03-31T05:50:06.565Z,92.40
2019-03-31T05:52:34.804Z,92.80
2019-03-31T05:55:03.324Z,92.90
2019-03-31T05:57:31.833Z,93.20
2019-03-31T06:00:00.548Z,93.20
2019-03-31T06:02:28.842Z,92.90
2019-03-31T06:04:57.095Z,93.20
2019-03-31T06:07:25.351Z,92.60
2019-03-31T06:09:53.600Z,92.00
2019-03-31T06:12:21.843Z,91.70
2019-03-31T06:14:50.095Z,91.40
2019-03-31T06:17:18.336Z,91.40
2019-03-31T06:19:46.592Z,91.30
2019-03-31T06:22:14.835Z,91.20
2019-03-31T06:24:43.343Z,91.10
2019-03-31T06:27:11.736Z,91.20
2019-03-31T06:29:39.992Z,90.70
2019-03-31T06:32:08.237Z,90.40
2019-03-31T06:34:46.743Z,90.50
2019-03-31T06:37:06.724Z,90.70
2019-03-31T06:39:34.978Z,90.40
2019-03-31T06:42:03.231Z,90.30
2019-03-31T06:44:31.481Z,90.10
2019-03-31T06:46:59.713Z,90.10
2019-03-31T06:49:27.971Z,90.20
2019-03-31T06:51:56.208Z,89.80
2019-03-31T06:54:24.704Z,89.50
2019-03-31T06:56:52.953Z,88.70
2019-03-31T06:59:21.208Z,88.10
2019-03-31T07:01:49.448Z,87.80
2019-03-31T07:04:17.704Z,87.60
2019-03-31T07:06:45.952Z,87.50
2019-03-31T07:09:14.203Z,86.40
2019-03-31T07:11:42.439Z,85.90
2019-03-31T07:14:10.692Z,84.90
2019-03-31T07:16:38.936Z,84.30
2019-03-31T07:19:07.185Z,83.60
2019-03-31T07:21:35.432Z,82.00
2019-03-31T07:24:03.672Z,81.40
2019-03-31T07:26:31.932Z,81.40
2019-03-31T07:29:00.431Z,79.80
2019-03-31T07:31:28.933Z,80.10
2019-03-31T07:33:57.176Z,79.70
2019-03-31T07:36:25.424Z,80.70
2019-03-31T07:38:53.773Z,80.90
2019-03-31T07:41:22.171Z,80.60
2019-03-31T07:43:50.551Z,79.00
2019-03-31T07:46:19.113Z,80.10
2019-03-31T07:48:47.376Z,80.10
2019-03-31T07:51:15.617Z,78.80
2019-03-31T07:53:43.872Z,79.40
2019-03-31T07:56:14.591Z,78.10
2019-03-31T07:58:42.371Z,77.40
2019-03-31T08:01:10.616Z,77.10
2019-03-31T08:03:39.107Z,77.10
2019-03-31T08:06:07.356Z,78.10
2019-03-31T08:08:35.601Z,77.10
2019-03-31T08:11:03.848Z,77.10
2019-03-31T08:13:32.097Z,77.90
2019-03-31T08:16:00.589Z,77.30
2019-03-31T08:18:28.842Z,75.90
2019-03-31T08:20:57.091Z,76.10
2019-03-31T08:23:25.339Z,76.20
2019-03-31T08:25:53.925Z,76.10
2019-03-31T08:28:22.240Z,76.40
2019-03-31T08:30:50.742Z,76.40
2019-03-31T08:33:18.979Z,77.00
2019-03-31T08:35:47.991Z,76.30
2019-03-31T08:38:16.306Z,76.60
2019-03-31T08:40:44.551Z,76.60
2019-03-31T08:43:12.794Z,76.00
2019-03-31T08:45:41.308Z,73.20
2019-03-31T08:48:09.553Z,72.40
2019-03-31T08:50:37.818Z,72.00
2019-03-31T08:53:06.096Z,71.50
2019-03-31T08:55:34.628Z,71.70
2019-03-31T08:58:04.941Z,72.60
2019-03-31T09:00:47.249Z,72.90
2019-03-31T09:03:15.491Z,73.20
2019-03-31T09:05:43.744Z,74.50
2019-03-31T09:08:12.003Z,73.80
2019-03-31T09:10:40.507Z,73.70
2019-03-31T09:13:09.016Z,73.80
2019-03-31T09:15:37.277Z,73.90
2019-03-31T09:18:05.861Z,73.10
2019-03-31T09:20:34.617Z,72.30
2019-03-31T09:23:03.113Z,72.30
2019-03-31T09:25:31.352Z,71.90
2019-03-31T09:27:59.614Z,72.00
2019-03-31T09:30:27.848Z,71.90
2019-03-31T09:32:56.100Z,71.30
2019-03-31T09:35:24.339Z,71.10
2019-03-31T09:37:52.870Z,71.10
2019-03-31T09:40:21.365Z,70.90
2019-03-31T09:42:49.862Z,71.20
2019-03-31T09:45:18.101Z,70.70
2019-03-31T09:47:46.361Z,71.50
2019-03-31T09:50:17.308Z,70.90
2019-03-31T09:52:44.760Z,70.30
2019-03-31T09:55:13.314Z,70.80
2019-03-31T09:57:41.856Z,70.90
2019-03-31T10:00:12.651Z,71.30
2019-03-31T10:02:41.233Z,71.40
2019-03-31T10:05:09.484Z,70.50
2019-03-31T10:07:38.165Z,71.70
2019-03-31T10:10:11.569Z,72.30
2019-03-31T10:12:40.072Z,72.60
2019-03-31T10:15:09.066Z,72.90
2019-03-31T10:17:37.381Z,72.70
2019-03-31T10:20:05.871Z,73.20
2019-03-31T10:22:34.446Z,72.90
2019-03-31T10:25:02.858Z,73.10
2019-03-31T10:27:31.127Z,72.20
2019-03-31T10:29:59.368Z,72.70
2019-03-31T10:32:27.601Z,72.90
2019-03-31T10:34:56.107Z,73.60
2019-03-31T10:37:24.615Z,73.80
2019-03-31T10:39:53.124Z,74.10
2019-03-31T10:42:21.372Z,74.60
2019-03-31T10:44:49.736Z,74.00
2019-03-31T10:47:17.984Z,74.70
2019-03-31T10:49:46.494Z,74.90
2019-03-31T10:52:14.732Z,74.90
2019-03-31T10:54:43.237Z,75.00
2019-03-31T10:57:11.476Z,75.00
2019-03-31T10:59:39.728Z,72.90
2019-03-31T11:02:07.971Z,72.60
2019-03-31T11:04:36.220Z,71.60
2019-03-31T11:07:04.468Z,72.00
2019-03-31T11:09:34.385Z,72.20
2019-03-31T11:12:03.109Z,70.40
2019-03-31T11:14:31.654Z,70.00
2019-03-31T11:16:59.888Z,67.90
2019-03-31T11:19:28.439Z,67.80
2019-03-31T11:21:58.576Z,68.50
2019-03-31T11:24:27.108Z,67.20
2019-03-31T11:26:55.356Z,64.80
2019-03-31T11:29:23.676Z,62.60
2019-03-31T11:31:51.923Z,60.70
2019-03-31T11:34:20.470Z,60.00
2019-03-31T11:36:48.711Z,57.30
2019-03-31T11:39:16.948Z,55.30
2019-03-31T11:41:45.203Z,55.40
2019-03-31T11:44:13.695Z,53.60
2019-03-31T11:46:41.956Z,52.70
2019-03-31T11:49:10.192Z,51.30
2019-03-31T11:51:38.454Z,52.10
2019-03-31T11:54:06.699Z,51.00
2019-03-31T11:56:35.193Z,47.80
2019-03-31T11:59:03.441Z,48.90
2019-03-31T12:01:31.691Z,47.90
2019-03-31T12:03:59.949Z,49.40
2019-03-31T12:06:28.196Z,49.50
2019-03-31T12:08:56.440Z,48.80
2019-03-31T12:11:24.695Z,46.10
2019-03-31T12:13:52.970Z,46.20
2019-03-31T12:16:21.223Z,46.10
2019-03-31T12:18:49.460Z,45.60
2019-03-31T12:21:17.788Z,45.00
2019-03-31T12:23:46.285Z,46.70
2019-03-31T12:26:14.535Z,48.10
2019-03-31T12:28:42.790Z,49.30
2019-03-31T12:31:11.041Z,47.30
2019-03-31T12:33:39.286Z,50.30
2019-03-31T12:36:07.802Z,49.80
2019-03-31T12:38:36.048Z,47.80
2019-03-31T12:41:04.575Z,48.10
2019-03-31T12:43:32.819Z,50.60
2019-03-31T12:46:01.063Z,49.40
2019-03-31T12:48:31.596Z,45.00
2019-03-31T12:50:59.284Z,40.30
2019-03-31T12:53:27.768Z,41.60
2019-03-31T12:56:00.235Z,41.20
2019-03-31T12:58:25.997Z,38.80
2019-03-31T13:00:54.248Z,38.50
2019-03-31T13:03:22.568Z,39.40
2019-03-31T13:05:50.818Z,36.80
2019-03-31T13:08:19.299Z,36.40
2019-03-31T13:10:47.552Z,35.90
2019-03-31T13:13:15.797Z,36.80
2019-03-31T13:15:44.308Z,36.20
2019-03-31T13:18:12.633Z,34.70
2019-03-31T13:20:40.889Z,34.20
2019-03-31T13:23:09.132Z,34.30
2019-03-31T13:25:37.622Z,34.70
2019-03-31T13:28:06.074Z,33.30
2019-03-31T13:30:34.589Z,35.40
2019-03-31T13:33:02.840Z,36.30
2019-03-31T13:35:31.328Z,32.40
2019-03-31T13:38:10.365Z,34.40
2019-03-31T13:40:29.576Z,35.20
2019-03-31T13:42:57.822Z,35.40
2019-03-31T13:45:26.067Z,33.20
2019-03-31T13:47:54.317Z,34.20
2019-03-31T13:50:22.556Z,33.90
2019-03-31T13:52:50.806Z,34.60
2019-03-31T13:55:19.044Z,33.20
2019-03-31T13:57:48.455Z,35.20
2019-03-31T14:00:35.817Z,36.70
2019-03-31T14:03:04.296Z,36.60
2019-03-31T14:05:32.538Z,38.30
2019-03-31T14:08:00.789Z,39.10
2019-03-31T14:10:29.031Z,38.60
2019-03-31T14:12:57.284Z,37.80
2019-03-31T14:15:25.777Z,37.90
2019-03-31T14:17:54.024Z,36.40
2019-03-31T14:20:22.266Z,35.00
2019-03-31T14:22:50.764Z,36.70
2019-03-31T14:25:19.004Z,37.60
2019-03-31T14:27:47.517Z,37.60
2019-03-31T14:30:16.272Z,38.20
2019-03-31T14:32:44.541Z,38.10
2019-03-31T14:35:12.777Z,38.80
2019-03-31T14:37:41.031Z,39.40
2019-03-31T14:40:09.515Z,38.60
2019-03-31T14:42:37.773Z,38.90
2019-03-31T14:45:06.680Z,39.00
2019-03-31T14:47:34.948Z,38.40
2019-03-31T14:50:03.195Z,36.00
2019-03-31T14:52:31.436Z,38.20
2019-03-31T14:54:59.679Z,37.80
2019-03-31T14:57:27.920Z,36.60
2019-03-31T14:59:56.168Z,35.90
2019-03-31T15:02:24.664Z,37.10
2019-03-31T15:04:52.912Z,36.40
2019-03-31T15:07:21.157Z,36.90
2019-03-31T15:09:49.407Z,38.20
2019-03-31T15:12:17.647Z,37.60
2019-03-31T15:14:45.895Z,37.70
2019-03-31T15:17:14.145Z,38.60
2019-03-31T15:19:42.393Z,36.80
2019-03-31T15:22:10.631Z,37.00
2019-03-31T15:24:38.952Z,37.80
2019-03-31T15:27:07.189Z,38.80
2019-03-31T15:29:35.440Z,39.30
2019-03-31T15:32:03.674Z,37.60
2019-03-31T15:34:31.921Z,37.70
2019-03-31T15:37:00.403Z,38.20
2019-03-31T15:39:28.656Z,37.90
2019-03-31T15:41:56.900Z,38.30
2019-03-31T15:44:25.150Z,38.70
2019-03-31T15:46:53.639Z,38.80
2019-03-31T15:49:21.880Z,38.20
2019-03-31T15:51:50.115Z,39.40
2019-03-31T15:54:18.370Z,39.50
2019-03-31T15:56:46.865Z,39.40
2019-03-31T15:59:15.104Z,41.10
2019-03-31T16:01:43.591Z,40.70
2019-03-31T16:04:11.832Z,41.10
2019-03-31T16:06:40.081Z,39.90
2019-03-31T16:09:22.473Z,40.30
2019-03-31T16:11:38.323Z,40.60
2019-03-31T16:14:06.613Z,40.80
2019-03-31T16:16:34.860Z,40.80
2019-03-31T16:19:03.099Z,41.00
2019-03-31T16:21:31.361Z,43.00
2019-03-31T16:23:59.596Z,42.80
2019-03-31T16:26:28.092Z,42.40
2019-03-31T16:28:56.328Z,42.50
2019-03-31T16:31:25.629Z,42.30
2019-03-31T16:33:54.112Z,42.30
2019-03-31T16:36:22.360Z,43.50
2019-03-31T16:38:50.614Z,43.20
2019-03-31T16:41:18.851Z,42.80
2019-03-31T16:43:47.100Z,42.30
2019-03-31T16:46:15.343Z,42.00
2019-03-31T16:48:43.584Z,41.50
2019-03-31T16:51:11.831Z,40.70
2019-03-31T16:53:40.074Z,41.10
2019-03-31T16:56:08.324Z,41.20
2019-03-31T16:58:36.566Z,40.70
2019-03-31T17:01:05.087Z,42.00
2019-03-31T17:03:33.394Z,41.90
2019-03-31T17:06:01.888Z,43.00
2019-03-31T17:08:30.141Z,43.50
2019-03-31T17:10:58.396Z,43.30
2019-03-31T17:13:26.632Z,43.60
2019-03-31T17:15:54.884Z,43.50
2019-03-31T17:18:23.381Z,41.70
2019-03-31T17:20:51.631Z,42.70
2019-03-31T17:23:19.884Z,42.90
2019-03-31T17:25:48.128Z,43.10
2019-03-31T17:28:16.370Z,44.40
2019-03-31T17:30:44.612Z,43.70
2019-03-31T17:33:12.864Z,44.20
2019-03-31T17:35:41.373Z,44.00
2019-03-31T17:38:09.613Z,44.40
2019-03-31T17:40:37.853Z,45.30
2019-03-31T17:43:06.120Z,45.50
2019-03-31T17:45:34.357Z,45.10
2019-03-31T17:48:02.604Z,45.90
2019-03-31T17:50:30.910Z,46.30
2019-03-31T17:52:59.160Z,46.70
2019-03-31T17:55:27.722Z,46.80
2019-03-31T17:57:55.968Z,47.30
2019-03-31T18:00:24.208Z,47.80
2019-03-31T18:02:52.532Z,47.60
2019-03-31T18:05:20.771Z,48.10
2019-03-31T18:07:49.030Z,48.20
2019-03-31T18:10:21.303Z,49.00
2019-03-31T18:12:47.232Z,50.90
2019-03-31T18:15:15.469Z,51.70
2019-03-31T18:17:44.151Z,52.10
2019-03-31T18:20:12.391Z,52.20
2019-03-31T18:22:40.627Z,52.90
2019-03-31T18:25:08.870Z,53.30
2019-03-31T18:27:37.113Z,53.60
2019-03-31T18:30:08.256Z,53.70
2019-03-31T18:32:36.500Z,53.90
2019-03-31T18:35:06.386Z,54.40
2019-03-31T18:37:34.692Z,54.80
2019-03-31T18:40:03.204Z,55.00
2019-03-31T18:42:31.456Z,55.40
2019-03-31T18:44:59.703Z,55.70
2019-03-31T18:47:27.952Z,55.90
2019-03-31T18:49:56.449Z,56.60
2019-03-31T18:52:24.775Z,56.30
2019-03-31T18:55:06.744Z,55.80
2019-03-31T18:57:51.671Z,55.20
2019-03-31T19:00:30.014Z,55.80
2019-03-31T19:03:08.636Z,55.90
2019-03-31T19:05:44.497Z,56.50
2019-03-31T19:08:17.326Z,56.10
2019-03-31T19:11:02.254Z,56.50
2019-03-31T19:13:38.064Z,56.40
2019-03-31T19:16:10.620Z,57.00
2019-03-31T19:18:56.913Z,57.00
2019-03-31T19:21:38.831Z,57.10
2019-03-31T19:24:24.929Z,57.60
2019-03-31T19:26:57.812Z,57.50
2019-03-31T19:29:37.043Z,56.70
2019-03-31T19:32:06.920Z,56.20
2019-03-31T19:34:45.780Z,55.60
2019-03-31T19:37:15.670Z,54.70
2019-03-31T19:39:45.561Z,54.70
2019-03-31T19:42:18.402Z,55.20
2019-03-31T19:44:54.257Z,54.80
2019-03-31T19:47:40.941Z,55.30
2019-03-31T19:50:27.220Z,54.70
2019-03-31T19:53:13.848Z,55.40
2019-03-31T19:56:07.660Z,54.90
2019-03-31T19:58:36.284Z,54.80
2019-03-31T20:01:12.138Z,54.40
2019-03-31T20:04:00.160Z,54.80
2019-03-31T20:06:46.232Z,54.00
2019-03-31T20:09:18.512Z,54.70
2019-03-31T20:11:54.176Z,54.60
2019-03-31T20:14:24.075Z,55.00
2019-03-31T20:16:57.163Z,55.00
2019-03-31T20:19:43.666Z,55.80
2019-03-31T20:22:30.068Z,56.90
2019-03-31T20:25:08.956Z,56.90
2019-03-31T20:27:44.576Z,56.60
2019-03-31T20:30:17.375Z,56.50
2019-03-31T20:32:56.076Z,56.60
2019-03-31T20:35:38.332Z,57.00
2019-03-31T20:38:08.210Z,57.00
2019-03-31T20:40:47.094Z,57.30
2019-03-31T20:43:31.979Z,57.80
2019-03-31T20:46:00.229Z,58.00
2019-03-31T20:48:28.467Z,58.80
2019-03-31T20:50:56.710Z,59.00
2019-03-31T20:53:25.191Z,59.30
2019-03-31T20:55:53.440Z,60.10
2019-03-31T20:58:21.684Z,59.70
2019-03-31T21:00:49.928Z,60.10
2019-03-31T21:03:18.167Z,61.10
2019-03-31T21:05:46.420Z,60.50
2019-03-31T21:08:14.660Z,60.50
2019-03-31T21:10:42.910Z,60.70
2019-03-31T21:13:11.144Z,61.00
2019-03-31T21:15:39.639Z,61.60
2019-03-31T21:18:07.872Z,62.40
2019-03-31T21:20:36.378Z,64.40
2019-03-31T21:23:04.684Z,64.40
2019-03-31T21:25:32.933Z,65.40
2019-03-31T21:28:01.177Z,65.40
2019-03-31T21:30:29.425Z,65.70
2019-03-31T21:32:57.659Z,66.60
2019-03-31T21:35:25.908Z,67.00
2019-03-31T21:37:54.156Z,67.40
2019-03-31T21:40:22.409Z,67.70
2019-03-31T21:42:50.648Z,67.50
2019-03-31T21:45:18.888Z,68.30
2019-03-31T21:47:47.176Z,69.30
2019-03-31T21:50:15.719Z,68.20
2019-03-31T21:52:43.952Z,67.90
2019-03-31T21:55:12.218Z,68.00
2019-03-31T21:57:40.452Z,68.20
2019-03-31T22:00:09.857Z,68.50
2019-03-31T22:02:38.107Z,68.00
2019-03-31T22:05:07.137Z,68.30
2019-03-31T22:07:35.382Z,68.20
2019-03-31T22:10:05.311Z,68.70
2019-03-31T22:12:33.816Z,68.60
2019-03-31T22:15:02.064Z,68.70
2019-03-31T22:17:30.318Z,68.20
2019-03-31T22:19:58.556Z,68.40
2019-03-31T22:22:26.808Z,69.60
2019-03-31T22:24:55.370Z,69.90
2019-03-31T22:27:23.627Z,70.00
2019-03-31T22:29:51.869Z,70.30
2019-03-31T22:32:20.150Z,71.80
2019-03-31T22:34:48.440Z,73.30
2019-03-31T22:37:16.941Z,74.00
2019-03-31T22:39:45.441Z,74.40
2019-03-31T22:42:13.708Z,75.30
2019-03-31T22:44:42.202Z,75.20
2019-03-31T22:47:10.448Z,75.60
2019-03-31T22:49:38.944Z,75.70
2019-03-31T22:52:07.193Z,75.70
2019-03-31T22:54:35.433Z,75.80
2019-03-31T22:57:03.681Z,75.50
2019-03-31T22:59:31.916Z,75.80
2019-03-31T23:02:00.408Z,75.80
2019-03-31T23:04:28.653Z,76.00
2019-03-31T23:06:56.904Z,76.30
2019-03-31T23:09:25.141Z,76.80
2019-03-31T23:11:53.382Z,76.30
2019-03-31T23:14:21.865Z,76.40
2019-03-31T23:16:50.364Z,76.90
2019-03-31T23:19:18.859Z,77.10
2019-03-31T23:21:47.383Z,76.40
2019-03-31T23:24:15.679Z,76.70
2019-03-31T23:26:43.920Z,76.20
2019-03-31T23:29:12.159Z,76.90
2019-03-31T23:31:40.478Z,76.70
2019-03-31T23:34:08.784Z,77.30
2019-03-31T23:36:37.285Z,77.50
2019-03-31T23:39:06.865Z,77.00
2019-03-31T23:41:35.108Z,77.60
2019-03-31T23:44:03.335Z,78.00
2019-03-31T23:46:31.850Z,77.30
2019-03-31T23:49:00.101Z,76.90
2019-03-31T23:51:28.364Z,77.30
2019-03-31T23:53:56.595Z,77.50
2019-03-31T23:56:24.869Z,78.80
2019-03-31T23:58:53.109Z,78.50
